Time;durP1;ratioP1;P1;durP2;ratioP2;P2;SDS_P1;SDS_P2;PMS_P1;PMS_P2;Temp;Humidity;BMP_temperature;BMP_pressure;BME280_temperature;BME280_humidity;BME280_pressure;Samples;Min_cycle;Max_cycle;Signal;HPM_P1;HPM_P2
2022/07/18 00:01:35;;;;;;;2.67;1.40;;;;;;;20.11;58.88;99830.00;4992477;28;20289;-79
2022/07/18 00:04:06;;;;;;;2.58;1.20;;;;;;;20.27;58.12;99823.06;4989891;28;20199;-79
2022/07/18 00:06:35;;;;;;;2.13;1.10;;;;;;;20.14;57.73;99814.44;4992229;28;20214;-79
2022/07/18 00:09:07;;;;;;;2.67;1.20;;;;;;;20.20;58.58;99818.41;4991674;28;20203;-79
2022/07/18 00:11:35;;;;;;;3.90;1.33;;;;;;;20.07;60.02;99826.75;4991054;28;20231;-79
2022/07/18 00:14:04;;;;;;;2.00;1.33;;;;;;;19.93;61.25;99819.13;4986862;28;20210;-79
2022/07/18 00:16:32;;;;;;;2.00;1.13;;;;;;;19.90;60.73;99822.94;4990618;28;20207;-80
2022/07/18 00:19:02;;;;;;;1.70;1.20;;;;;;;19.86;60.62;99823.34;4997061;28;20250;-79
2022/07/18 00:21:32;;;;;;;4.13;1.13;;;;;;;19.89;59.86;99815.88;4992038;28;20203;-79
2022/07/18 00:24:01;;;;;;;2.22;1.00;;;;;;;19.66;60.51;99820.66;4987897;28;20198;-79
2022/07/18 00:26:29;;;;;;;3.65;1.48;;;;;;;19.55;61.10;99820.75;4987800;28;20207;-79
2022/07/18 00:28:57;;;;;;;1.98;1.20;;;;;;;19.38;62.87;99824.94;4992168;28;20210;-79
2022/07/18 00:31:26;;;;;;;3.22;1.20;;;;;;;19.35;63.16;99819.84;4993626;28;20690;-79
2022/07/18 00:33:54;;;;;;;3.00;1.48;;;;;;;19.33;63.30;99821.84;4985953;28;20195;-79
2022/07/18 00:36:23;;;;;;;3.80;1.50;;;;;;;19.12;64.49;99824.63;4991989;28;20199;-79
2022/07/18 00:38:53;;;;;;;2.95;1.52;;;;;;;19.11;65.36;99822.91;5021976;28;20242;-79
2022/07/18 00:41:21;;;;;;;3.42;1.45;;;;;;;19.18;65.33;99820.50;4990761;28;20684;-79
2022/07/18 00:43:50;;;;;;;2.77;1.40;;;;;;;19.14;67.17;99819.09;4989103;28;20214;-79
2022/07/18 00:46:22;;;;;;;2.50;1.20;;;;;;;19.16;67.76;99817.13;4991946;28;20197;-80
2022/07/18 00:48:51;;;;;;;3.33;1.30;;;;;;;18.96;67.60;99826.09;4991895;28;20286;-79
2022/07/18 00:51:20;;;;;;;3.03;1.23;;;;;;;18.99;67.30;99818.59;4988865;28;20227;-80
2022/07/18 00:53:50;;;;;;;2.17;1.40;;;;;;;18.81;68.62;99820.22;4985430;28;20191;-79
2022/07/18 00:56:20;;;;;;;4.70;1.50;;;;;;;18.80;69.17;99822.06;5088045;28;20199;-79
2022/07/18 00:58:49;;;;;;;1.45;1.10;;;;;;;18.70;69.70;99820.31;5089271;28;20635;-79
2022/07/18 01:04:03;;;;;;;3.70;1.30;;;;;;;18.67;69.61;99828.66;5091404;28;20682;-79
2022/07/18 01:06:32;;;;;;;3.83;1.20;;;;;;;18.82;69.39;99824.63;5082960;28;20204;-79
2022/07/18 01:09:01;;;;;;;5.13;1.42;;;;;;;19.01;69.41;99823.84;5088080;28;20199;-79
2022/07/18 01:11:31;;;;;;;2.83;1.33;;;;;;;18.73;69.87;99820.06;5088054;28;20308;-79
2022/07/18 01:14:01;;;;;;;3.27;1.30;;;;;;;18.84;69.29;99826.19;5059188;28;20619;-79
2022/07/18 01:16:29;;;;;;;2.30;1.20;;;;;;;18.71;69.63;99822.00;4991264;28;20719;-80
2022/07/18 01:18:58;;;;;;;2.90;1.30;;;;;;;18.68;70.48;99822.28;4989079;28;20254;-79
2022/07/18 01:21:28;;;;;;;4.80;1.30;;;;;;;18.46;72.45;99818.75;4986071;28;20195;-79
2022/07/18 01:23:56;;;;;;;2.63;1.10;;;;;;;18.61;72.26;99816.56;4989346;28;20199;-79
2022/07/18 01:26:24;;;;;;;1.90;1.20;;;;;;;18.46;72.61;99816.06;4990084;28;20191;-79
2022/07/18 01:28:53;;;;;;;1.87;1.20;;;;;;;18.53;72.36;99813.72;4995408;28;20211;-79
2022/07/18 01:31:21;;;;;;;5.03;1.37;;;;;;;18.42;71.98;99817.31;4984464;28;20712;-79
2022/07/18 01:33:49;;;;;;;2.07;1.20;;;;;;;18.36;72.81;99809.81;4985625;28;20654;-79
2022/07/18 01:36:18;;;;;;;2.03;1.08;;;;;;;18.28;73.24;99809.59;4989378;28;20251;-79
2022/07/18 01:38:50;;;;;;;3.95;1.30;;;;;;;18.29;73.02;99812.16;4989962;28;20235;-78
2022/07/18 01:41:18;;;;;;;2.58;1.23;;;;;;;18.52;72.22;99810.16;4983803;28;20219;-79
2022/07/18 01:43:47;;;;;;;1.90;1.10;;;;;;;18.58;72.13;99808.78;4992344;28;20203;-80
2022/07/18 01:46:15;;;;;;;4.77;1.20;;;;;;;18.41;72.73;99804.03;4988076;28;20270;-79
2022/07/18 01:48:43;;;;;;;2.33;1.20;;;;;;;18.43;73.21;99810.09;4988053;28;20187;-80
2022/07/18 01:51:12;;;;;;;4.33;1.57;;;;;;;18.31;73.52;99807.50;4992572;28;20234;-79
2022/07/18 01:53:41;;;;;;;3.60;1.20;;;;;;;18.46;73.61;99801.81;4989262;28;20203;-79
2022/07/18 01:56:13;;;;;;;2.53;1.30;;;;;;;18.38;73.84;99806.97;4989479;28;20222;-79
2022/07/18 01:58:41;;;;;;;3.00;1.30;;;;;;;18.33;74.02;99803.84;4990986;28;20199;-79
2022/07/18 02:01:09;;;;;;;2.50;1.20;;;;;;;18.31;75.22;99803.97;4991059;28;20195;-79
2022/07/18 02:03:37;;;;;;;2.63;1.30;;;;;;;18.16;76.68;99794.56;4990825;28;20207;-79
2022/07/18 02:06:06;;;;;;;2.77;1.10;;;;;;;18.03;78.35;99795.59;4995332;28;20210;-79
2022/07/18 02:08:34;;;;;;;3.20;1.20;;;;;;;18.00;78.01;99803.91;4985603;28;20211;-79
2022/07/18 02:11:03;;;;;;;4.57;1.80;;;;;;;17.99;78.17;99798.69;4986736;28;20230;-79
2022/07/18 02:13:32;;;;;;;2.93;1.20;;;;;;;18.06;78.09;99799.00;4992308;28;20202;-79
2022/07/18 02:16:01;;;;;;;4.97;1.40;;;;;;;18.15;77.90;99792.88;4987775;28;20203;-79
2022/07/18 02:18:32;;;;;;;5.37;1.60;;;;;;;18.06;78.64;99799.00;4987903;28;20209;-79
2022/07/18 02:21:07;;;;;;;3.30;1.40;;;;;;;18.07;79.23;99788.16;4984636;28;20195;-79
2022/07/18 02:23:36;;;;;;;2.60;1.60;;;;;;;17.94;79.72;99791.00;4991159;28;20362;-79
2022/07/18 02:26:04;;;;;;;3.60;1.53;;;;;;;17.73;81.39;99793.66;4993593;28;20700;-79
2022/07/18 02:28:34;;;;;;;3.40;1.30;;;;;;;17.71;81.66;99787.59;4990432;28;20234;-78
2022/07/18 02:31:03;;;;;;;5.87;1.57;;;;;;;17.68;82.39;99792.31;4991120;28;20298;-78
2022/07/18 02:33:31;;;;;;;3.30;1.50;;;;;;;17.61;82.60;99791.13;4990334;28;20199;-79
2022/07/18 02:36:01;;;;;;;3.63;1.60;;;;;;;17.59;83.68;99785.91;4987796;28;20240;-79
2022/07/18 02:38:30;;;;;;;1.33;1.07;;;;;;;17.60;83.63;99787.59;4985377;28;20306;-79
2022/07/18 02:40:58;;;;;;;2.10;1.23;;;;;;;17.55;84.22;99796.97;4981569;28;20248;-79
2022/07/18 02:43:27;;;;;;;2.87;1.53;;;;;;;17.43;84.78;99799.69;4987339;28;20234;-79
2022/07/18 02:45:57;;;;;;;1.87;1.33;;;;;;;17.10;87.31;99802.47;4998332;28;20211;-79
2022/07/18 02:48:25;;;;;;;3.00;1.43;;;;;;;16.77;90.53;99801.50;4992295;28;20199;-79
2022/07/18 02:50:53;;;;;;;3.43;1.60;;;;;;;16.78;91.82;99802.34;4989442;28;20210;-79
2022/07/18 02:53:23;;;;;;;3.23;1.47;;;;;;;16.88;91.82;99812.19;4992556;28;20191;-79
2022/07/18 02:55:52;;;;;;;2.80;1.30;;;;;;;16.73;92.37;99805.41;4990067;28;20255;-79
2022/07/18 02:58:20;;;;;;;3.90;1.60;;;;;;;16.63;93.54;99811.56;5043270;28;20226;-79
2022/07/18 03:00:49;;;;;;;2.57;1.40;;;;;;;16.67;93.91;99807.66;4990453;28;20191;-79
2022/07/18 03:03:19;;;;;;;2.63;1.43;;;;;;;16.62;94.20;99810.72;4988330;28;20669;-79
2022/07/18 03:05:47;;;;;;;2.60;1.33;;;;;;;16.67;94.09;99807.66;4995450;28;20205;-79
2022/07/18 03:08:16;;;;;;;4.23;1.40;;;;;;;16.85;93.03;99801.75;4985983;28;20223;-79
2022/07/18 03:10:45;;;;;;;3.57;1.43;;;;;;;16.73;93.02;99799.19;4993362;28;20278;-79
2022/07/18 03:13:13;;;;;;;3.57;1.30;;;;;;;16.69;92.64;99798.56;4989783;28;20227;-79
2022/07/18 03:15:42;;;;;;;2.40;1.40;;;;;;;16.75;92.37;99795.41;4989432;28;20199;-79
2022/07/18 03:18:10;;;;;;;2.50;1.30;;;;;;;16.64;91.57;99790.03;4997652;28;20219;-79
2022/07/18 03:20:40;;;;;;;2.97;1.20;;;;;;;16.64;91.63;99790.03;4991998;28;20281;-79
2022/07/18 03:23:09;;;;;;;3.00;1.50;;;;;;;16.73;91.34;99794.69;4990295;28;20202;-79
2022/07/18 03:25:37;;;;;;;2.93;1.67;;;;;;;16.69;91.78;99798.56;4990399;28;20237;-80
2022/07/18 03:28:06;;;;;;;5.10;1.50;;;;;;;16.52;93.40;99797.22;4989907;28;20230;-80
2022/07/18 03:30:34;;;;;;;2.13;1.30;;;;;;;16.39;94.23;99806.28;4993089;28;20199;-79
2022/07/18 03:33:02;;;;;;;5.13;1.50;;;;;;;16.17;96.72;99802.59;4990429;28;20305;-80
2022/07/18 03:35:33;;;;;;;3.83;1.37;;;;;;;16.06;99.59;99799.06;4995247;28;20219;-79
2022/07/18 03:38:04;;;;;;;2.93;1.50;;;;;;;15.86;100.00;99798.75;4993024;28;20223;-79
2022/07/18 03:40:32;;;;;;;3.93;1.70;;;;;;;15.99;100.00;99801.34;4987479;28;20198;-79
2022/07/18 03:43:01;;;;;;;4.27;1.50;;;;;;;15.94;100.00;99796.34;4986450;28;20214;-79
2022/07/18 03:45:29;;;;;;;3.87;1.57;;;;;;;15.95;100.00;99802.56;4989198;28;20222;-79
2022/07/18 03:47:57;;;;;;;5.27;1.60;;;;;;;15.84;100.00;99800.69;4991193;28;20287;-79
2022/07/18 03:50:27;;;;;;;2.77;1.73;;;;;;;15.79;100.00;99786.81;4985360;28;20259;-79
2022/07/18 03:52:55;;;;;;;2.37;1.30;;;;;;;15.94;100.00;99791.00;4990100;28;20219;-79
2022/07/18 03:55:25;;;;;;;2.33;1.40;;;;;;;15.98;100.00;99800.50;4987955;28;20195;-79
2022/07/18 03:57:53;;;;;;;6.00;1.37;;;;;;;15.96;100.00;99804.25;4988851;28;20196;-79
2022/07/18 04:00:21;;;;;;;4.33;1.60;;;;;;;15.92;100.00;99803.66;4989097;28;20203;-79
2022/07/18 04:02:50;;;;;;;5.50;1.43;;;;;;;15.96;100.00;99802.44;4992776;28;20195;-79
2022/07/18 04:05:18;;;;;;;1.63;1.20;;;;;;;15.89;100.00;99795.84;4992721;28;20191;-79
2022/07/18 04:07:46;;;;;;;4.77;1.30;;;;;;;16.03;100.00;99795.66;4992551;28;20210;-79
2022/07/18 04:10:15;;;;;;;2.10;1.53;;;;;;;15.95;100.00;99811.41;4988172;28;20218;-79
2022/07/18 04:12:49;;;;;;;5.20;1.87;;;;;;;16.02;100.00;99796.63;4990938;28;20222;-79
2022/07/18 04:15:18;;;;;;;3.33;1.47;;;;;;;16.02;100.00;99804.66;4992694;28;20360;-79
2022/07/18 04:17:46;;;;;;;4.70;1.70;;;;;;;15.94;100.00;99819.56;4992391;28;20210;-79
2022/07/18 04:20:16;;;;;;;2.77;1.40;;;;;;;15.98;100.00;99811.19;4989553;28;20266;-79
2022/07/18 04:22:46;;;;;;;3.30;1.50;;;;;;;16.08;100.00;99802.47;4990833;28;20224;-79
2022/07/18 04:25:17;;;;;;;3.00;1.70;;;;;;;16.18;100.00;99809.66;4989517;28;20303;-79
2022/07/18 04:27:45;;;;;;;2.53;1.50;;;;;;;16.18;100.00;99817.66;4991271;28;20227;-79
2022/07/18 04:30:16;;;;;;;2.03;1.37;;;;;;;16.11;100.00;99820.94;4988106;28;20658;-79
2022/07/18 04:32:45;;;;;;;3.17;1.40;;;;;;;16.13;100.00;99819.88;4989261;28;20226;-79
2022/07/18 04:35:21;;;;;;;3.10;1.70;;;;;;;16.26;100.00;99814.41;4958705;28;20637;-78
2022/07/18 04:37:50;;;;;;;4.37;1.40;;;;;;;16.14;100.00;99810.03;4991196;28;20219;-79
2022/07/18 04:40:18;;;;;;;2.83;1.30;;;;;;;16.24;100.00;99809.19;4989343;28;20195;-79
2022/07/18 04:42:47;;;;;;;3.33;1.40;;;;;;;16.05;100.00;99805.38;4990924;28;20203;-79
2022/07/18 04:45:21;;;;;;;4.67;1.43;;;;;;;15.97;100.00;99805.97;4988920;28;20199;-79
2022/07/18 04:47:50;;;;;;;1.90;1.50;;;;;;;15.96;100.00;99801.59;4991915;28;20198;-79
2022/07/18 04:50:18;;;;;;;3.23;1.70;;;;;;;16.11;100.00;99807.56;4992346;28;20199;-78
2022/07/18 04:52:48;;;;;;;3.93;1.30;;;;;;;16.23;100.00;99802.16;4987571;28;20230;-79
2022/07/18 04:55:18;;;;;;;3.97;1.50;;;;;;;16.25;100.00;99802.03;4990191;28;20207;-79
2022/07/18 04:57:47;;;;;;;3.47;1.40;;;;;;;16.27;100.00;99808.09;4986188;28;20207;-78
2022/07/18 05:00:18;;;;;;;4.07;1.60;;;;;;;16.36;100.00;99809.22;4991293;28;20195;-79
2022/07/18 05:02:48;;;;;;;4.73;1.27;;;;;;;16.36;100.00;99811.88;4991745;28;20199;-79
2022/07/18 05:05:17;;;;;;;2.43;1.43;;;;;;;16.49;100.00;99812.63;4989746;28;20203;-78
2022/07/18 05:07:46;;;;;;;4.33;1.70;;;;;;;16.42;100.00;99812.28;4987878;28;20217;-79
2022/07/18 05:10:16;;;;;;;2.43;1.37;;;;;;;16.68;100.00;99796.88;4988587;28;20241;-79
2022/07/18 05:12:46;;;;;;;2.93;1.47;;;;;;;16.79;100.00;99798.69;4990199;28;20247;-79
2022/07/18 05:15:18;;;;;;;3.67;1.37;;;;;;;16.78;100.00;99811.22;4991579;28;20203;-79
2022/07/18 05:17:46;;;;;;;2.50;1.57;;;;;;;16.96;100.00;99806.22;4986465;28;20199;-80
2022/07/18 05:20:17;;;;;;;2.13;1.30;;;;;;;16.99;100.00;99811.34;4987666;28;20203;-79
2022/07/18 05:22:46;;;;;;;2.37;1.60;;;;;;;17.00;100.00;99821.09;4986009;28;20195;-79
2022/07/18 05:25:15;;;;;;;3.83;1.70;;;;;;;17.13;100.00;99812.91;4987299;28;20226;-79
2022/07/18 05:27:44;;;;;;;2.27;1.40;;;;;;;17.32;100.00;99813.13;4987506;28;20207;-79
2022/07/18 05:30:17;;;;;;;4.43;1.90;;;;;;;17.44;100.00;99811.25;4987446;28;20206;-79
2022/07/18 05:32:45;;;;;;;2.97;1.53;;;;;;;17.56;100.00;99818.28;4989611;28;20219;-79
2022/07/18 05:35:14;;;;;;;5.10;1.50;;;;;;;17.55;100.00;99819.25;4991250;28;20208;-79
2022/07/18 05:37:43;;;;;;;2.53;1.57;;;;;;;17.51;100.00;99819.66;4991069;28;20237;-78
2022/07/18 05:40:14;;;;;;;5.60;1.70;;;;;;;17.36;100.00;99819.06;4991284;28;20278;-79
2022/07/18 05:42:43;;;;;;;3.87;1.30;;;;;;;17.61;100.00;99812.56;4990632;28;20218;-79
2022/07/18 05:45:23;;;;;;;5.20;1.50;;;;;;;17.79;99.07;99819.09;4989716;28;20313;-78
2022/07/18 05:47:52;;;;;;;3.87;1.50;;;;;;;18.01;98.27;99818.16;4990887;28;20194;-78
2022/07/18 05:50:20;;;;;;;7.20;1.63;;;;;;;18.07;98.40;99811.44;4986992;28;20669;-79
2022/07/18 05:52:48;;;;;;;4.63;1.60;;;;;;;18.31;95.79;99807.50;4990723;28;20226;-79
2022/07/18 05:55:17;;;;;;;2.07;1.37;;;;;;;18.34;94.10;99803.72;4995230;28;20206;-78
2022/07/18 05:57:45;;;;;;;5.17;1.50;;;;;;;18.53;92.90;99811.03;4985099;28;20669;-79
2022/07/18 06:00:15;;;;;;;5.07;1.60;;;;;;;18.62;94.44;99809.38;4985610;28;20219;-81
2022/07/18 06:02:44;;;;;;;4.18;1.75;;;;;;;18.78;93.34;99825.88;4991474;28;20205;-80
2022/07/18 06:05:13;;;;;;;3.93;1.57;;;;;;;18.77;90.62;99819.66;4991239;28;20211;-79
2022/07/18 06:07:51;;;;;;;3.40;1.87;;;;;;;18.78;87.49;99821.34;4988197;28;20187;-78
2022/07/18 06:10:20;;;;;;;3.80;1.40;;;;;;;18.90;85.64;99823.94;4990752;28;20234;-79
2022/07/18 06:12:49;;;;;;;3.23;1.50;;;;;;;19.03;85.69;99824.59;5029482;28;20212;-79
2022/07/18 06:15:18;;;;;;;2.85;1.50;;;;;;;19.16;86.03;99819.81;5025818;28;20190;-79
2022/07/18 06:17:48;;;;;;;4.03;1.30;;;;;;;19.24;86.18;99817.28;5028614;28;20202;-79
2022/07/18 06:20:16;;;;;;;3.27;1.37;;;;;;;19.43;85.94;99819.19;4976808;28;20230;-79
2022/07/18 06:22:45;;;;;;;4.32;1.40;;;;;;;19.45;86.72;99819.88;4975725;28;20199;-79
2022/07/18 06:25:13;;;;;;;4.00;1.75;;;;;;;19.67;82.45;99816.97;4978079;28;20195;-79
2022/07/18 06:27:41;;;;;;;5.88;1.50;;;;;;;19.76;83.66;99812.59;4974369;28;20213;-79
2022/07/18 06:30:10;;;;;;;3.30;1.23;;;;;;;19.82;82.81;99803.13;4974877;28;20279;-79
2022/07/18 06:32:39;;;;;;;3.67;1.45;;;;;;;20.01;81.04;99797.75;4975558;28;20188;-79
2022/07/18 06:35:10;;;;;;;5.35;1.45;;;;;;;20.30;78.66;99803.09;4978063;28;20399;-79
2022/07/18 06:37:38;;;;;;;5.07;1.50;;;;;;;20.28;77.42;99799.69;4954119;28;20218;-79
2022/07/18 06:40:08;;;;;;;6.45;1.60;;;;;;;20.53;76.93;99809.00;4996715;28;20213;-79
2022/07/18 06:42:36;;;;;;;2.90;1.25;;;;;;;20.49;76.55;99802.22;5000157;28;20199;-79
2022/07/18 06:45:07;;;;;;;4.47;1.60;;;;;;;20.74;76.28;99798.88;4992279;28;20721;-79
2022/07/18 06:47:41;;;;;;;6.05;1.58;;;;;;;20.83;73.58;99797.13;4994629;28;20270;-79
2022/07/18 06:50:12;;;;;;;2.30;1.42;;;;;;;21.10;74.15;99801.69;4989713;28;20191;-79
2022/07/18 06:52:41;;;;;;;2.60;1.30;;;;;;;21.28;75.45;99794.53;4996649;28;20226;-79
2022/07/18 06:55:11;;;;;;;3.65;1.58;;;;;;;21.41;75.15;99788.78;4996422;28;20693;-79
2022/07/18 06:57:40;;;;;;;3.63;1.83;;;;;;;21.47;72.04;99798.13;4991264;28;20218;-80
2022/07/18 07:00:10;;;;;;;2.85;1.67;;;;;;;21.67;71.54;99792.44;4993949;28;20227;-80
2022/07/18 07:02:42;;;;;;;6.93;1.52;;;;;;;21.71;72.08;99784.88;4996576;28;20244;-79
2022/07/18 07:05:13;;;;;;;2.95;1.40;;;;;;;21.91;71.07;99791.81;4993634;28;20234;-79
2022/07/18 07:07:41;;;;;;;2.90;1.52;;;;;;;22.13;68.57;99793.22;4993792;28;20204;-79
2022/07/18 07:10:18;;;;;;;4.18;1.52;;;;;;;22.15;63.63;99799.28;5000662;28;20203;-79
2022/07/18 07:12:48;;;;;;;3.75;1.48;;;;;;;22.46;61.08;99799.69;4995060;28;20206;-79
2022/07/18 07:15:19;;;;;;;3.25;1.33;;;;;;;22.44;57.51;99801.72;4996184;28;20227;-80
2022/07/18 07:17:48;;;;;;;2.17;1.33;;;;;;;22.65;56.45;99795.06;4996341;28;20297;-79
2022/07/18 07:20:21;;;;;;;4.45;1.40;;;;;;;22.68;55.58;99792.03;4996363;28;20255;-80
2022/07/18 07:22:52;;;;;;;3.55;1.50;;;;;;;22.69;54.25;99793.78;4993564;28;20202;-79
2022/07/18 07:25:21;;;;;;;4.00;1.25;;;;;;;22.84;51.55;99784.91;4996385;28;20199;-79
2022/07/18 07:27:49;;;;;;;4.72;1.55;;;;;;;23.11;49.80;99777.59;4989499;28;20210;-79
2022/07/18 07:30:18;;;;;;;2.60;1.25;;;;;;;23.14;48.87;99779.97;4989420;28;20279;-79
2022/07/18 07:32:47;;;;;;;4.60;1.33;;;;;;;23.46;48.10;99778.41;4986747;28;20222;-79
2022/07/18 07:35:19;;;;;;;2.30;1.27;;;;;;;23.53;47.52;99779.41;4996049;28;20597;-79
2022/07/18 07:37:50;;;;;;;3.88;1.48;;;;;;;23.58;45.93;99771.66;4983424;28;20238;-79
2022/07/18 07:40:19;;;;;;;4.75;1.38;;;;;;;23.84;45.21;99785.09;4992750;28;20195;-79
2022/07/18 07:42:48;;;;;;;4.07;1.48;;;;;;;23.59;45.22;99770.66;4986275;28;20207;-79
2022/07/18 07:45:17;;;;;;;2.50;1.15;;;;;;;23.78;44.77;99770.34;4990032;28;20195;-79
2022/07/18 07:47:46;;;;;;;4.80;1.50;;;;;;;23.95;43.96;99774.78;4987449;28;20191;-77
2022/07/18 07:50:14;;;;;;;4.30;1.65;;;;;;;24.08;44.22;99771.53;4994822;28;20201;-79
2022/07/18 07:52:44;;;;;;;3.90;1.60;;;;;;;24.21;44.39;99774.56;4990938;28;20230;-79
2022/07/18 07:55:12;;;;;;;2.72;1.25;;;;;;;24.14;43.96;99761.91;4989388;28;20313;-79
2022/07/18 07:57:42;;;;;;;4.20;1.65;;;;;;;24.17;43.29;99758.84;4987888;28;20207;-79
2022/07/18 08:00:11;;;;;;;3.05;1.40;;;;;;;24.39;43.28;99760.03;4989289;28;20261;-79
2022/07/18 08:02:51;;;;;;;3.55;1.30;;;;;;;24.66;42.01;99758.78;4992763;28;20203;-79
2022/07/18 08:05:27;;;;;;;4.18;1.40;;;;;;;24.90;41.06;99752.41;4987562;28;20200;-79
2022/07/18 08:07:57;;;;;;;2.47;1.02;;;;;;;25.17;40.43;99754.69;4992411;28;20206;-79
2022/07/18 08:10:25;;;;;;;2.65;1.10;;;;;;;25.17;39.18;99741.13;4989607;28;20206;-79
2022/07/18 08:12:54;;;;;;;2.58;1.38;;;;;;;25.35;38.16;99739.00;4988494;28;20211;-79
2022/07/18 08:15:23;;;;;;;3.45;1.30;;;;;;;25.49;36.36;99742.84;4988404;28;20223;-79
2022/07/18 08:17:52;;;;;;;1.70;1.10;;;;;;;25.58;35.37;99740.91;4988201;28;20222;-79
2022/07/18 08:20:21;;;;;;;3.53;1.30;;;;;;;25.47;35.88;99742.13;4989394;28;20188;-79
2022/07/18 08:22:53;;;;;;;5.15;1.40;;;;;;;25.79;35.66;99743.00;4992194;28;20203;-79
2022/07/18 08:25:28;;;;;;;2.03;1.38;;;;;;;25.47;35.99;99735.88;4992119;28;20191;-79
2022/07/18 08:27:57;;;;;;;3.20;1.38;;;;;;;25.49;36.20;99742.84;4988113;28;20215;-79
2022/07/18 08:30:27;;;;;;;3.95;1.38;;;;;;;25.83;35.57;99734.28;4990345;28;20207;-79
2022/07/18 08:32:55;;;;;;;2.25;1.40;;;;;;;26.13;35.12;99731.66;4985442;28;20207;-79
2022/07/18 08:35:24;;;;;;;2.80;1.38;;;;;;;26.05;35.56;99737.97;4992052;28;20223;-79
2022/07/18 08:37:52;;;;;;;3.20;1.20;;;;;;;26.01;35.49;99742.09;4989198;28;20310;-79
2022/07/18 08:40:21;;;;;;;2.72;1.30;;;;;;;25.90;34.64;99740.69;4985146;28;20199;-79
2022/07/18 08:42:52;;;;;;;3.25;1.38;;;;;;;25.92;33.58;99741.34;4988177;28;20195;-79
2022/07/18 08:45:43;;;;;;;3.20;1.60;;;;;;;25.81;34.06;99732.78;4991757;28;20225;-79
2022/07/18 08:48:14;;;;;;;2.70;1.30;;;;;;;25.98;33.83;99733.50;4992045;28;20210;-79
2022/07/18 08:50:44;;;;;;;2.17;1.45;;;;;;;25.98;33.43;99738.94;4986279;28;20198;-79
2022/07/18 08:53:12;;;;;;;1.45;1.20;;;;;;;26.18;33.61;99737.38;4992026;28;20642;-79
2022/07/18 08:55:41;;;;;;;2.40;1.38;;;;;;;26.45;33.25;99735.97;4991344;28;20221;-79
2022/07/18 08:58:12;;;;;;;2.85;1.35;;;;;;;26.64;32.75;99727.25;4991337;28;20248;-79
2022/07/18 09:01:00;;;;;;;4.43;1.30;;;;;;;26.78;32.50;99731.81;4991770;28;20240;-79
2022/07/18 09:03:29;;;;;;;2.88;1.38;;;;;;;26.77;32.02;99732.00;4986413;28;20207;-79
2022/07/18 09:06:04;;;;;;;4.40;1.77;;;;;;;26.96;32.10;99733.31;4989626;28;20206;-79
2022/07/18 09:08:32;;;;;;;2.38;1.20;;;;;;;27.04;32.66;99736.78;4989728;28;20690;-79
2022/07/18 09:11:03;;;;;;;3.25;1.70;;;;;;;27.30;31.01;99732.69;4990181;28;20207;-79
2022/07/18 09:13:39;;;;;;;2.35;1.40;;;;;;;27.59;29.85;99731.75;4988893;28;20681;-79
2022/07/18 09:16:09;;;;;;;4.53;1.30;;;;;;;27.84;29.44;99726.78;4987483;28;20223;-79
2022/07/18 09:18:39;;;;;;;4.13;1.50;;;;;;;28.08;29.57;99725.50;4992872;28;20286;-79
2022/07/18 09:21:09;;;;;;;1.58;1.33;;;;;;;28.19;30.27;99727.72;4994597;28;20203;-79
2022/07/18 09:23:39;;;;;;;3.08;1.30;;;;;;;27.64;31.09;99721.13;4991224;28;20199;-79
2022/07/18 09:26:09;;;;;;;1.80;1.15;;;;;;;27.72;31.31;99723.75;4983439;28;20199;-79
2022/07/18 09:28:50;;;;;;;3.42;1.35;;;;;;;27.55;31.06;99723.13;4991128;28;20203;-79
2022/07/18 09:31:38;;;;;;;3.83;1.30;;;;;;;27.58;30.82;99724.63;4991118;28;20198;-79
2022/07/18 09:34:07;;;;;;;2.30;1.30;;;;;;;27.87;31.47;99723.66;4991314;28;20207;-79
2022/07/18 09:36:54;;;;;;;2.35;1.35;;;;;;;28.17;31.30;99716.16;4989399;28;20219;-79
2022/07/18 09:39:22;;;;;;;3.08;1.35;;;;;;;27.92;31.51;99716.59;4985957;28;20205;-79
2022/07/18 09:41:54;;;;;;;3.75;1.30;;;;;;;28.43;30.65;99727.28;4986981;28;20274;-79
2022/07/18 09:44:24;;;;;;;2.83;1.20;;;;;;;28.50;30.88;99710.97;4991154;28;20223;-80
2022/07/18 09:47:02;;;;;;;3.38;1.52;;;;;;;28.53;30.64;99718.75;4985123;28;20191;-79
2022/07/18 09:49:33;;;;;;;5.53;1.40;;;;;;;28.53;30.30;99726.91;4988304;28;20195;-79
2022/07/18 09:52:07;;;;;;;1.67;1.08;;;;;;;28.26;31.06;99716.84;4983405;28;20373;-79
2022/07/18 09:54:40;;;;;;;2.97;1.10;;;;;;;28.49;30.75;99717.47;4989798;28;20196;-79
2022/07/18 09:57:09;;;;;;;2.08;1.02;;;;;;;28.57;30.76;99721.91;4984291;28;20205;-79
2022/07/18 09:59:39;;;;;;;3.40;1.17;;;;;;;28.39;31.18;99720.56;4986607;28;20278;-79
2022/07/18 10:02:15;;;;;;;1.90;1.33;;;;;;;28.95;30.70;99717.75;4987452;28;20271;-80
2022/07/18 10:04:45;;;;;;;1.80;1.30;;;;;;;29.10;29.85;99717.59;4990705;28;20275;-79
2022/07/18 10:07:14;;;;;;;3.03;1.13;;;;;;;29.17;29.57;99714.88;4990700;28;20199;-79
2022/07/18 10:09:44;;;;;;;1.83;1.10;;;;;;;29.43;29.15;99719.56;4981744;28;20282;-79
2022/07/18 10:12:15;;;;;;;3.22;1.58;;;;;;;29.77;29.00;99716.72;4989489;28;20209;-79
2022/07/18 10:14:45;;;;;;;6.10;1.20;;;;;;;29.62;29.51;99716.06;4990467;28;20199;-79
2022/07/18 10:17:13;;;;;;;1.90;1.20;;;;;;;29.71;28.78;99714.81;4990617;28;20206;-79
2022/07/18 10:19:42;;;;;;;4.20;1.40;;;;;;;29.54;29.06;99716.28;4987926;28;20219;-79
2022/07/18 10:22:11;;;;;;;3.15;1.30;;;;;;;29.42;30.19;99713.25;4990647;28;20209;-79
2022/07/18 10:24:41;;;;;;;3.17;1.20;;;;;;;28.90;29.86;99717.50;4990521;28;20202;-79
2022/07/18 10:27:13;;;;;;;3.58;1.10;;;;;;;29.72;29.43;99711.03;4986747;28;20199;-79
2022/07/18 10:30:11;;;;;;;2.50;1.10;;;;;;;29.47;29.11;99712.66;4987694;28;20195;-80
2022/07/18 10:32:40;;;;;;;2.45;1.30;;;;;;;30.25;28.15;99705.59;4987781;28;20230;-80
2022/07/18 10:35:12;;;;;;;1.85;1.13;;;;;;;30.34;28.31;99711.69;4990648;28;20278;-80
2022/07/18 10:37:40;;;;;;;2.42;1.20;;;;;;;30.46;28.02;99702.59;4989939;28;20222;-80
2022/07/18 10:40:29;;;;;;;2.13;1.25;;;;;;;29.47;29.43;99696.28;4987570;28;20207;-80
2022/07/18 10:43:34;;;;;;;1.63;1.20;;;;;;;30.00;29.08;99694.44;4986176;28;20234;-80
2022/07/18 10:46:06;;;;;;;2.33;1.10;;;;;;;30.04;28.57;99701.19;4989769;28;20195;-79
2022/07/18 10:48:58;;;;;;;1.30;1.00;;;;;;;30.70;27.64;99690.19;4982180;28;20191;-80
2022/07/18 10:51:35;;;;;;;2.30;1.20;;;;;;;30.27;28.05;99688.97;4990838;28;20203;-80
2022/07/18 10:54:11;;;;;;;3.00;1.40;;;;;;;30.37;28.28;99690.22;4987955;28;20251;-80
2022/07/18 10:57:12;;;;;;;2.15;1.20;;;;;;;30.03;27.95;99691.31;4988645;28;20237;-80
2022/07/18 11:00:01;;;;;;;1.90;1.20;;;;;;;30.96;27.51;99694.69;4990094;28;20213;-80
2022/07/18 11:02:48;;;;;;;2.10;1.23;;;;;;;30.99;27.44;99688.78;4987220;28;20699;-80
2022/07/18 11:05:35;;;;;;;3.13;1.30;;;;;;;31.19;26.47;99701.53;4991552;28;20209;-80
2022/07/18 11:08:23;;;;;;;3.22;1.30;;;;;;;30.83;27.33;99696.66;4993509;28;20210;-80
2022/07/18 11:11:15;;;;;;;3.60;1.27;;;;;;;31.19;27.09;99687.84;4992099;28;20222;-80
2022/07/18 11:13:49;;;;;;;2.05;1.15;;;;;;;31.94;25.85;99693.47;4990766;28;20207;-80
2022/07/18 11:16:21;;;;;;;1.92;1.13;;;;;;;31.53;26.85;99684.69;4993240;28;20218;-80
2022/07/18 11:19:20;;;;;;;2.88;1.30;;;;;;;32.24;26.03;99675.28;4990827;28;20217;-80
2022/07/18 11:21:58;;;;;;;2.33;1.40;;;;;;;32.20;25.64;99676.78;4990191;28;20210;-80
2022/07/18 11:24:27;;;;;;;1.02;0.93;;;;;;;32.30;25.95;99674.41;4988086;28;20195;-80
2022/07/18 11:26:56;;;;;;;1.65;1.40;;;;;;;32.74;25.22;99664.22;4991956;28;20461;-80
2022/07/18 11:29:25;;;;;;;2.22;1.38;;;;;;;32.48;25.71;99668.09;4988953;28;20642;-80
2022/07/18 11:31:55;;;;;;;2.40;1.30;;;;;;;32.06;25.96;99672.53;4990255;28;20210;-80
2022/07/18 11:34:26;;;;;;;1.25;1.05;;;;;;;31.15;27.07;99673.75;4990104;28;20200;-80
2022/07/18 11:37:16;;;;;;;4.18;1.17;;;;;;;31.44;26.42;99657.81;4992823;28;20260;-80
2022/07/18 11:39:44;;;;;;;4.57;1.42;;;;;;;32.47;25.81;99655.44;4988456;28;20195;-78
2022/07/18 11:42:15;;;;;;;1.80;1.23;;;;;;;31.90;26.23;99652.00;4991877;28;20737;-78
2022/07/18 11:44:44;;;;;;;1.40;1.30;;;;;;;32.72;25.63;99647.97;4989269;28;20275;-78
2022/07/18 11:47:15;;;;;;;2.10;1.25;;;;;;;33.25;24.87;99641.78;4986431;28;20203;-78
2022/07/18 11:49:55;;;;;;;2.85;1.10;;;;;;;33.49;24.69;99644.59;4988037;28;20710;-80
2022/07/18 11:52:24;;;;;;;1.60;1.30;;;;;;;33.14;24.12;99648.06;4989130;28;20241;-80